Time;durP1;ratioP1;P1;durP2;ratioP2;P2;SDS_P1;SDS_P2;PMS_P1;PMS_P2;Temp;Humidity;BMP_temperature;BMP_pressure;BME280_temperature;BME280_humidity;BME280_pressure;Samples;Min_cycle;Max_cycle;Signal;HPM_P1;HPM_P2
2023/03/13 00:00:05;;;;;;;;;11.50;11.50;;;;;14.83;70.08;100634.56;2002293;27;2786714;-75
2023/03/13 00:01:29;;;;;;;;;17.00;12.00;;;;;14.83;69.99;100648.66;2000696;27;2795074;-75
2023/03/13 00:02:40;;;;;;;;;14.00;14.00;;;;;14.84;70.58;100634.47;2002085;27;2804479;-75
2023/03/13 00:03:54;;;;;;;;;16.67;13.00;;;;;14.83;70.83;100630.13;2023722;27;2803488;-75
2023/03/13 00:05:06;;;;;;;;;16.80;16.80;;;;;14.83;70.51;100616.03;2043701;27;2820014;-75
2023/03/13 00:06:18;;;;;;;;;16.00;14.50;;;;;14.83;70.16;100616.91;1999175;28;2805462;-75
2023/03/13 00:07:30;;;;;;;;;17.80;15.20;;;;;14.84;70.65;100609.84;2008861;27;3548110;-75
2023/03/13 00:08:41;;;;;;;;;11.00;10.00;;;;;14.85;70.41;100607.13;2013614;28;2794028;-75
2023/03/13 00:09:52;;;;;;;;;14.00;12.50;;;;;14.85;70.60;100614.16;1991390;28;2790170;-75
2023/03/13 00:11:04;;;;;;;;;11.00;10.00;;;;;14.84;70.61;100597.44;2011061;28;2792988;-75
2023/03/13 00:12:16;;;;;;;;;7.25;5.00;;;;;14.84;70.50;100594.78;2039010;28;1823768;-75
2023/03/13 00:13:30;;;;;;;;;6.50;6.50;;;;;14.83;70.03;100590.44;2052981;27;2740909;-75
2023/03/13 00:14:43;;;;;;;;;6.67;6.50;;;;;14.83;69.83;100598.38;2026776;28;2741395;-75
2023/03/13 00:16:04;;;;;;;;;7.67;6.00;;;;;14.84;70.22;100597.44;2001294;28;3458626;-75
2023/03/13 00:17:15;;;;;;;;;5.00;4.00;;;;;14.85;70.53;100598.28;2025502;28;2749791;-75
2023/03/13 00:18:26;;;;;;;;;2.67;1.00;;;;;14.85;70.29;100593.91;2052780;27;2741928;-76
2023/03/13 00:19:39;;;;;;;;;6.17;4.00;;;;;14.85;70.78;100599.19;2030644;27;2745064;-75
2023/03/13 00:20:57;;;;;;;;;4.00;3.67;;;;;14.85;70.59;100596.53;2002941;27;2754439;-75
2023/03/13 00:22:10;;;;;;;;;3.83;3.17;;;;;14.86;70.34;100584.19;2053848;27;2734995;-75
2023/03/13 00:23:23;;;;;;;;;2.17;2.17;;;;;14.85;70.23;100593.91;2029531;28;2748181;-75
2023/03/13 00:24:37;;;;;;;;;4.00;2.33;;;;;14.84;70.05;100592.13;2029061;27;2744051;-75
2023/03/13 00:26:00;;;;;;;;;2.67;2.33;;;;;14.85;70.63;100593.91;2029424;27;2744027;-75
2023/03/13 00:27:13;;;;;;;;;2.83;2.67;;;;;14.85;70.24;100604.47;2028212;27;2748225;-75
2023/03/13 00:28:28;;;;;;;;;3.67;1.83;;;;;14.87;70.00;100603.53;2028137;28;2741992;-75
2023/03/13 00:29:41;;;;;;;;;4.00;2.17;;;;;14.85;71.12;100593.91;2028988;28;2750257;-75
2023/03/13 00:31:22;;;;;;;;;3.33;2.00;;;;;14.87;70.73;100595.59;2028850;27;2744043;-75
2023/03/13 00:32:32;;;;;;;;;3.00;2.00;;;;;14.88;70.62;100594.66;2004050;28;2747140;-75
2023/03/13 00:33:46;;;;;;;;;3.00;3.00;;;;;14.87;70.65;100587.66;2044657;27;2753422;-75
2023/03/13 00:34:59;;;;;;;;;3.00;3.00;;;;;14.88;70.03;100592.00;2053194;28;2737765;-75
2023/03/13 00:36:14;;;;;;;;;2.00;2.00;;;;;14.87;70.84;100591.16;2003747;27;2754420;-75
2023/03/13 00:37:27;;;;;;;;;3.00;3.00;;;;;14.87;70.51;100587.66;2051338;28;2748212;-75
2023/03/13 00:38:41;;;;;;;;;2.00;2.00;;;;;14.88;70.90;100592.00;2028768;28;2746465;-75
2023/03/13 00:39:54;;;;;;;;;2.67;2.00;;;;;14.87;70.95;100583.22;2028901;28;2750341;-75
2023/03/13 00:41:13;;;;;;;;;2.00;2.00;;;;;14.88;70.89;100587.59;2027844;28;2734684;-75
2023/03/13 00:42:26;;;;;;;;;3.00;3.00;;;;;14.87;70.55;100590.28;2021722;28;2740891;-75
2023/03/13 00:43:42;;;;;;;;;2.17;2.00;;;;;14.87;70.78;100579.72;2028814;27;2739855;-75
2023/03/13 00:44:55;;;;;;;;;1.33;1.33;;;;;14.89;70.53;100575.22;2025654;28;2724228;-75
2023/03/13 00:46:09;;;;;;;;;3.50;2.00;;;;;14.90;70.60;100582.19;2025245;28;2746099;-76
2023/03/13 00:47:23;;;;;;;;;2.50;2.00;;;;;14.89;70.42;100567.28;2027489;27;2742966;-75
2023/03/13 00:48:37;;;;;;;;;2.17;2.17;;;;;14.90;70.45;100571.63;2028766;27;2739857;-75
2023/03/13 00:49:50;;;;;;;;;2.33;2.00;;;;;14.89;70.71;100576.03;2021064;28;2752345;-75
2023/03/13 00:51:04;;;;;;;;;1.67;1.67;;;;;14.89;70.74;100577.88;2026717;28;2733632;-75
2023/03/13 00:52:18;;;;;;;;;3.17;3.00;;;;;14.88;70.82;100568.19;2029079;27;2743034;-75
2023/03/13 00:53:31;;;;;;;;;2.67;2.00;;;;;14.88;70.73;100571.72;2029178;27;2747133;-76
2023/03/13 00:54:42;;;;;;;;;2.00;2.00;;;;;14.89;70.74;100575.22;2003934;27;2753424;-75
2023/03/13 00:56:08;;;;;;;;;2.00;2.00;;;;;14.90;70.38;100574.25;2052303;27;2739870;-75
2023/03/13 00:57:21;;;;;;;;;2.00;2.00;;;;;14.91;70.39;100581.28;2052800;27;2739836;-75
2023/03/13 00:58:37;;;;;;;;;3.00;2.00;;;;;14.91;70.46;100587.44;2028388;28;2736751;-75
2023/03/13 00:59:50;;;;;;;;;2.33;2.33;;;;;14.92;70.69;100575.88;2028876;28;2749218;-75
2023/03/13 01:01:14;;;;;;;;;2.50;2.50;;;;;14.93;70.93;100582.91;2029596;27;2744011;-75
2023/03/13 01:02:27;;;;;;;;;2.67;2.67;;;;;14.93;70.50;100589.97;2028769;28;2733625;-75
2023/03/13 01:03:39;;;;;;;;;2.00;2.00;;;;;14.93;70.78;100595.28;2002020;28;2754447;-75
2023/03/13 01:04:53;;;;;;;;;3.33;2.50;;;;;14.91;70.59;100603.31;2053141;28;2742038;-75
2023/03/13 01:06:09;;;;;;;;;2.00;2.00;;;;;14.92;70.38;100598.84;2029970;27;2737797;-75
2023/03/13 01:07:22;;;;;;;;;2.00;2.00;;;;;14.92;70.59;100598.84;2026827;27;2751292;-75
2023/03/13 01:08:35;;;;;;;;;2.67;1.67;;;;;14.94;70.62;100602.25;2030652;27;2730867;-75
2023/03/13 01:09:49;;;;;;;;;2.83;2.83;;;;;14.92;70.61;100582.97;2028392;27;2741927;-75
2023/03/13 01:11:08;;;;;;;;;3.00;3.00;;;;;14.93;70.41;100590.84;2029915;28;2739849;-75
2023/03/13 01:12:19;;;;;;;;;3.00;2.67;;;;;14.94;70.22;100586.38;2003788;28;2754820;-75
2023/03/13 01:13:31;;;;;;;;;1.00;1.00;;;;;14.95;70.62;100577.53;2052820;27;2725250;-75
2023/03/13 01:14:48;;;;;;;;;3.33;2.17;;;;;14.93;70.51;100563.53;2052759;27;2741929;-75
2023/03/13 01:16:06;;;;;;;;;2.00;1.67;;;;;14.95;70.19;100564.28;2029648;27;2744082;-75
2023/03/13 01:17:19;;;;;;;;;5.17;3.17;;;;;14.95;70.29;100577.53;2025752;27;2745057;-75
2023/03/13 01:18:30;;;;;;;;;4.00;3.33;;;;;14.96;70.56;100568.66;1996372;28;2753379;-76
2023/03/13 01:19:43;;;;;;;;;3.40;2.80;;;;;14.96;70.26;100566.00;2052786;28;2754436;-75
2023/03/13 01:20:56;;;;;;;;;2.00;2.00;;;;;14.96;70.36;100566.00;2028855;27;2746651;-75
2023/03/13 01:22:11;;;;;;;;;2.67;2.67;;;;;14.97;70.29;100559.75;2027635;27;2748178;-75
2023/03/13 01:23:25;;;;;;;;;2.67;2.50;;;;;14.97;70.14;100549.16;2020599;28;2748177;-75
2023/03/13 01:24:38;;;;;;;;;4.00;2.33;;;;;14.97;69.88;100549.16;2028745;28;2739878;-75
2023/03/13 01:25:53;;;;;;;;;2.50;2.50;;;;;14.98;70.01;100548.25;2028816;27;2746496;-75
2023/03/13 01:27:06;;;;;;;;;3.50;2.17;;;;;14.98;70.30;100540.31;2027542;28;2731520;-75
2023/03/13 01:28:17;;;;;;;;;2.67;2.00;;;;;14.98;69.98;100545.59;2002173;28;2752839;-75
2023/03/13 01:29:27;;;;;;;;;3.00;3.00;;;;;14.99;69.89;100544.66;2040926;28;2754424;-75
2023/03/13 01:30:42;;;;;;;;;3.00;3.00;;;;;14.99;69.86;100530.59;2051855;28;2726319;-76
2023/03/13 01:31:55;;;;;;;;;4.50;3.67;;;;;15.00;70.22;100522.53;2021719;28;2746099;-75
2023/03/13 01:33:05;;;;;;;;;2.67;2.67;;;;;14.98;69.89;100524.44;2002494;28;2753779;-75
2023/03/13 01:34:17;;;;;;;;;0.00;0.00;;;;;14.98;70.01;100512.97;2051686;28;2739852;-75
2023/03/13 01:35:30;;;;;;;;;3.00;2.17;;;;;14.98;69.80;100515.63;2027807;28;2735686;-75
2023/03/13 01:36:45;;;;;;;;;1.50;1.50;;;;;15.00;69.80;100526.97;2026894;28;2724699;-75
2023/03/13 01:37:58;;;;;;;;;3.67;3.67;;;;;15.00;69.80;100535.78;2028718;28;2741960;-75
2023/03/13 01:39:11;;;;;;;;;3.00;3.00;;;;;15.00;69.78;100527.84;2027468;28;2741938;-75
2023/03/13 01:40:25;;;;;;;;;3.00;2.17;;;;;15.00;69.80;100537.56;2023855;27;2739849;-76
2023/03/13 01:41:38;;;;;;;;;3.67;3.50;;;;;15.01;69.66;100544.59;2046817;28;2743008;-75
2023/03/13 01:42:56;;;;;;;;;3.00;2.83;;;;;15.00;69.75;100549.00;2029742;27;2734700;-75
2023/03/13 01:44:21;;;;;;;;;3.50;3.50;;;;;15.00;69.80;100549.00;2030141;27;2731516;-75
2023/03/13 01:46:18;;;;;;;;;4.00;3.00;;;;;15.00;69.92;100549.00;2021087;28;2732545;-75
2023/03/13 01:47:31;;;;;;;;;4.00;3.17;;;;;15.01;69.63;100555.16;2020684;28;2748178;-75
2023/03/13 01:49:10;;;;;;;;;4.33;2.17;;;;;15.00;69.59;100551.66;2021531;28;2741962;-75
2023/03/13 01:50:23;;;;;;;;;4.00;3.17;;;;;14.99;69.94;100549.94;2021653;28;2731519;-75
2023/03/13 01:51:40;;;;;;;;;3.67;2.00;;;;;14.99;69.70;100539.34;2028632;28;2730490;-75
2023/03/13 01:52:51;;;;;;;;;5.00;3.00;;;;;14.99;69.99;100539.34;2002900;28;2750286;-75
2023/03/13 01:54:34;;;;;;;;;3.00;3.00;;;;;15.00;69.62;100530.47;2051412;27;2754444;-75
2023/03/13 01:55:48;;;;;;;;;3.33;2.33;;;;;15.01;69.48;100526.06;2050404;28;2748186;-76
2023/03/13 01:57:04;;;;;;;;;5.33;4.83;;;;;15.02;69.51;100519.81;2027501;28;2749718;-75
2023/03/13 01:58:18;;;;;;;;;5.50;3.00;;;;;15.01;69.66;100511.03;2029086;28;2737780;-75
2023/03/13 01:59:39;;;;;;;;;3.33;2.00;;;;;15.01;69.50;100502.25;2001830;28;2746106;-75
2023/03/13 02:00:49;;;;;;;;;2.33;2.33;;;;;15.00;69.25;100498.72;2023190;28;2751302;-75
2023/03/13 02:02:03;;;;;;;;;2.00;2.00;;;;;15.01;69.17;100507.53;2051584;27;2744004;-75
2023/03/13 02:03:19;;;;;;;;;4.50;3.17;;;;;15.00;69.39;100496.09;2029823;27;2735701;-75
2023/03/13 02:04:40;;;;;;;;;3.50;3.50;;;;;15.00;69.25;100496.09;2030038;27;2735697;-75
2023/03/13 02:05:55;;;;;;;;;3.00;2.67;;;;;15.01;69.04;100494.28;2036261;27;2745045;-75
2023/03/13 02:07:14;;;;;;;;;5.00;2.50;;;;;15.00;68.96;100501.38;2022223;27;2742322;-75
2023/03/13 02:09:08;;;;;;;;;4.67;3.33;;;;;15.01;69.06;100497.81;2001848;28;2750281;-75
2023/03/13 02:10:21;;;;;;;;;3.00;2.00;;;;;15.00;68.89;100493.44;2019853;28;2750784;-75
2023/03/13 02:11:58;;;;;;;;;4.33;3.00;;;;;15.00;69.06;100493.44;2026855;27;2741991;-75
2023/03/13 02:13:13;;;;;;;;;4.00;2.00;;;;;15.01;69.06;100496.94;2025118;28;3464863;-75
2023/03/13 02:14:31;;;;;;;;;4.50;4.33;;;;;15.02;69.21;100491.56;2043639;28;2741954;-75
2023/03/13 02:15:45;;;;;;;;;4.50;3.00;;;;;15.01;69.34;100500.44;2027559;28;2737768;-75
2023/03/13 02:17:00;;;;;;;;;5.17;2.17;;;;;15.01;69.23;100486.34;2026921;27;2750293;-75
2023/03/13 02:18:11;;;;;;;;;4.67;2.00;;;;;15.00;69.18;100487.28;1994979;28;2754863;-75
2023/03/13 02:19:31;;;;;;;;;4.67;4.00;;;;;15.00;69.01;100485.50;2033884;28;2750268;-75
2023/03/13 02:20:46;;;;;;;;;3.00;3.00;;;;;15.01;68.86;100492.50;2052108;28;2745056;-76
2023/03/13 02:22:23;;;;;;;;;3.50;2.67;;;;;15.03;69.09;100495.06;2026716;28;2750269;-76
2023/03/13 02:23:50;;;;;;;;;4.00;3.17;;;;;15.02;69.31;100483.63;2024083;28;2741946;-75
2023/03/13 02:25:12;;;;;;;;;8.00;4.00;;;;;15.03;69.09;100489.78;2001579;28;3463785;-75
2023/03/13 02:26:26;;;;;;;;;5.50;3.50;;;;;15.03;69.04;100495.91;2049641;28;2746703;-76
2023/03/13 02:27:36;;;;;;;;;4.00;4.00;;;;;15.03;68.95;100480.03;2003321;27;2750292;-75
2023/03/13 02:28:47;;;;;;;;;7.67;3.00;;;;;15.03;69.00;100469.44;2039251;27;2746091;-75
2023/03/13 02:29:58;;;;;;;;;5.33;3.33;;;;;15.04;68.68;100475.56;2036118;28;2742992;-75
2023/03/13 02:31:12;;;;;;;;;2.67;2.67;;;;;15.03;69.21;100469.44;2053202;27;2739884;-76
2023/03/13 02:32:28;;;;;;;;;4.17;3.00;;;;;15.03;68.69;100466.81;2053319;27;2737785;-75
2023/03/13 02:33:43;;;;;;;;;3.33;3.00;;;;;15.03;68.49;100458.88;2028614;27;2750611;-76
2023/03/13 02:35:03;;;;;;;;;6.17;4.00;;;;;15.04;69.23;100455.25;2028927;27;2732565;-75
2023/03/13 02:36:15;;;;;;;;;5.33;4.00;;;;;15.03;68.95;100453.56;2010311;27;2749243;-75
2023/03/13 02:37:30;;;;;;;;;5.50;3.00;;;;;15.03;68.78;100452.72;2054325;27;2752367;-76
2023/03/13 02:38:54;;;;;;;;;3.50;3.17;;;;;15.02;69.21;100440.41;2021865;28;2733599;-75
2023/03/13 02:40:14;;;;;;;;;4.00;4.00;;;;;15.02;68.83;100451.84;2029645;27;2733614;-75
2023/03/13 02:41:28;;;;;;;;;2.83;2.83;;;;;15.01;68.77;100455.47;2036250;27;2740905;-75
2023/03/13 02:42:42;;;;;;;;;6.33;5.00;;;;;15.02;68.43;100443.06;2007904;27;3460697;-76
2023/03/13 02:43:55;;;;;;;;;2.50;2.50;;;;;15.01;68.59;100454.59;2053091;28;2731527;-75
2023/03/13 02:45:09;;;;;;;;;6.67;3.83;;;;;15.00;68.88;100448.44;2020922;28;2740610;-75
2023/03/13 02:46:20;;;;;;;;;4.00;3.00;;;;;15.00;68.50;100448.44;2001290;27;2748257;-75
2023/03/13 02:47:34;;;;;;;;;5.17;3.67;;;;;14.99;68.78;100452.03;2057456;27;2741921;-75
2023/03/13 02:48:47;;;;;;;;;8.00;4.33;;;;;14.99;68.80;100456.47;1993637;28;2745573;-75
2023/03/13 02:50:00;;;;;;;;;7.33;3.67;;;;;14.98;68.73;100460.91;2043370;28;2739851;-75
2023/03/13 02:51:22;;;;;;;;;3.83;3.50;;;;;14.97;68.56;100459.19;2025544;28;2739853;-75
2023/03/13 02:53:09;;;;;;;;;5.17;2.50;;;;;14.97;68.65;100461.84;2028547;28;2742959;-76
2023/03/13 02:54:32;;;;;;;;;7.67;4.67;;;;;14.98;68.77;100460.06;1986427;28;2747511;-75
2023/03/13 02:55:45;;;;;;;;;3.50;2.83;;;;;14.97;68.81;100461.84;2047868;28;2741964;-76
2023/03/13 02:57:02;;;;;;;;;4.00;2.00;;;;;14.96;68.60;100457.50;2027440;28;2734683;-76
2023/03/13 02:58:12;;;;;;;;;5.00;4.00;;;;;14.96;68.91;100462.81;2002351;28;2748505;-75
2023/03/13 02:59:24;;;;;;;;;3.00;3.00;;;;;14.96;68.56;100457.50;2049373;28;2746179;-75
2023/03/13 03:00:37;;;;;;;;;2.33;2.33;;;;;14.98;68.85;100460.06;2043431;28;2736736;-75
2023/03/13 03:01:51;;;;;;;;;7.67;4.00;;;;;14.97;68.54;100448.59;2018335;28;3473153;-76
2023/03/13 03:03:01;;;;;;;;;4.00;4.00;;;;;14.98;68.77;100460.06;2019658;28;3468981;-75
2023/03/13 03:04:12;;;;;;;;;4.00;4.00;;;;;14.96;68.81;100455.69;2034202;28;2750740;-76
2023/03/13 03:05:23;;;;;;;;;4.00;4.00;;;;;14.98;68.74;100452.13;2048267;28;2746107;-75
2023/03/13 03:06:37;;;;;;;;;4.50;4.00;;;;;14.96;68.88;100447.75;2025658;28;2749245;-75
2023/03/13 03:07:49;;;;;;;;;6.00;4.00;;;;;14.98;68.73;100447.69;1996272;28;2752354;-75
2023/03/13 03:08:59;;;;;;;;;5.00;4.00;;;;;14.99;68.93;100443.25;2026194;28;2749214;-76
2023/03/13 03:10:10;;;;;;;;;5.00;4.00;;;;;14.99;68.73;100449.38;2043581;28;2748177;-75
2023/03/13 03:11:21;;;;;;;;;5.00;3.00;;;;;14.98;68.68;100445.03;2031918;27;2750768;-75
2023/03/13 03:12:32;;;;;;;;;5.00;5.00;;;;;14.99;68.62;100430.84;2045063;27;2742983;-75
2023/03/13 03:13:44;;;;;;;;;7.00;4.50;;;;;14.98;68.29;100429.16;2052278;27;2749239;-75
2023/03/13 03:14:57;;;;;;;;;3.50;2.17;;;;;14.97;68.95;100432.72;2052466;27;2736752;-75
2023/03/13 03:16:14;;;;;;;;;4.67;3.67;;;;;14.98;68.90;100420.34;2028835;27;2750273;-75
2023/03/13 03:17:27;;;;;;;;;5.33;4.00;;;;;14.99;68.90;100424.72;2037577;27;2740240;-75
2023/03/13 03:18:37;;;;;;;;;4.00;4.00;;;;;14.98;68.60;100425.66;2010634;27;2742977;-75
2023/03/13 03:19:48;;;;;;;;;8.00;5.33;;;;;14.98;68.83;100426.50;2044540;27;2750272;-76
2023/03/13 03:20:59;;;;;;;;;6.00;4.33;;;;;14.98;69.12;100426.50;2041910;27;2752460;-75
2023/03/13 03:22:10;;;;;;;;;3.33;3.33;;;;;14.99;68.65;100424.72;2051818;27;2737808;-75
2023/03/13 03:23:21;;;;;;;;;6.33;3.67;;;;;14.98;68.72;100429.16;1996727;28;2749730;-76
2023/03/13 03:24:32;;;;;;;;;3.00;3.00;;;;;14.98;68.87;100425.66;2050732;28;2744030;-75
2023/03/13 03:25:45;;;;;;;;;4.67;3.67;;;;;14.98;68.54;100425.66;2050940;27;2744023;-76
2023/03/13 03:26:55;;;;;;;;;2.00;2.00;;;;;14.99;68.63;100428.19;2004506;28;2730489;-75
2023/03/13 03:28:06;;;;;;;;;6.00;4.33;;;;;15.00;68.52;100427.28;2049749;27;2748285;-75
2023/03/13 03:29:18;;;;;;;;;6.50;4.75;;;;;15.00;69.18;100439.66;2056051;27;2746641;-75
2023/03/13 03:30:31;;;;;;;;;6.67;4.83;;;;;14.99;68.78;100425.56;2044434;28;2742515;-75
2023/03/13 03:31:42;;;;;;;;;4.00;3.33;;;;;15.01;68.74;100433.44;2002390;28;2750342;-75
2023/03/13 03:32:53;;;;;;;;;3.00;3.00;;;;;15.00;68.47;100437.84;2050658;28;2741470;-75
2023/03/13 03:34:06;;;;;;;;;4.33;4.33;;;;;15.00;68.46;100431.72;2046118;28;2744488;-75
2023/03/13 03:35:19;;;;;;;;;5.50;5.50;;;;;15.00;68.91;100432.56;2028524;28;2745110;-75
2023/03/13 03:36:29;;;;;;;;;6.00;5.00;;;;;15.00;68.79;100440.50;2025973;28;2747191;-76
2023/03/13 03:37:40;;;;;;;;;5.67;5.00;;;;;15.01;68.61;100426.34;2044108;28;2750304;-75
2023/03/13 03:38:51;;;;;;;;;4.67;4.00;;;;;15.01;68.75;100429.00;2040788;28;2753396;-75
2023/03/13 03:40:05;;;;;;;;;3.80;2.00;;;;;15.00;68.69;100443.16;2051812;28;2742977;-75
2023/03/13 03:41:16;;;;;;;;;9.33;5.00;;;;;15.00;68.81;100432.56;2025471;28;2754455;-75
2023/03/13 03:42:26;;;;;;;;;5.67;5.67;;;;;14.99;68.72;100428.19;2031548;28;3463821;-75
2023/03/13 03:43:37;;;;;;;;;5.00;4.00;;;;;14.99;68.72;100427.38;2038538;28;2754508;-76
2023/03/13 03:44:48;;;;;;;;;6.00;3.00;;;;;14.99;68.61;100436.13;2037106;28;2738289;-75
2023/03/13 03:46:00;;;;;;;;;3.00;3.00;;;;;15.01;68.64;100444.00;2040037;27;2746118;-75
2023/03/13 03:47:10;;;;;;;;;7.00;4.67;;;;;15.00;68.30;100432.56;2027018;28;2750269;-75
2023/03/13 03:48:22;;;;;;;;;4.75;3.50;;;;;15.01;68.85;100450.16;2044043;28;2746100;-75
2023/03/13 03:49:33;;;;;;;;;9.00;4.67;;;;;15.03;68.86;100442.97;2025889;28;2748271;-76
2023/03/13 03:50:43;;;;;;;;;4.00;3.33;;;;;15.02;68.78;100443.91;2042097;27;2754451;-75
2023/03/13 03:51:54;;;;;;;;;5.00;4.00;;;;;15.02;68.84;100449.22;2052388;27;2734668;-75
2023/03/13 03:53:05;;;;;;;;;3.00;3.00;;;;;15.02;68.80;100441.28;2003514;27;2748223;-76
2023/03/13 03:54:16;;;;;;;;;7.00;4.33;;;;;15.03;68.53;100442.97;2043368;27;2750288;-75
2023/03/13 03:55:27;;;;;;;;;6.00;4.00;;;;;15.02;68.48;100443.91;2039255;28;2754451;-75
2023/03/13 03:56:38;;;;;;;;;5.00;3.00;;;;;15.03;68.71;100453.56;2052376;28;2746113;-75
2023/03/13 03:57:51;;;;;;;;;4.00;4.00;;;;;15.03;68.66;100435.03;2029019;28;2741947;-75
2023/03/13 03:59:04;;;;;;;;;3.83;3.83;;;;;15.04;68.52;100451.75;2029192;28;2742008;-75
2023/03/13 04:00:20;;;;;;;;;3.17;3.17;;;;;15.03;68.65;100448.28;2021073;28;2740910;-76
2023/03/13 04:01:34;;;;;;;;;6.00;4.50;;;;;15.04;68.60;100433.22;2029119;28;2737798;-75
2023/03/13 04:02:47;;;;;;;;;5.83;4.00;;;;;15.03;68.31;100442.13;2028405;28;2745344;-76
2023/03/13 04:03:57;;;;;;;;;7.00;6.00;;;;;15.03;68.35;100442.97;2003002;28;2750320;-75
2023/03/13 04:05:08;;;;;;;;;8.00;6.00;;;;;15.03;68.42;100426.25;2051002;27;2735689;-75
2023/03/13 04:06:20;;;;;;;;;5.75;5.50;;;;;15.03;68.45;100423.59;2057706;27;2748708;-75
2023/03/13 04:07:31;;;;;;;;;9.00;7.67;;;;;15.03;68.53;100416.53;2004731;28;2737785;-76
2023/03/13 04:08:41;;;;;;;;;4.67;4.67;;;;;15.03;68.33;100413.00;2028417;27;2748186;-75
2023/03/13 04:09:52;;;;;;;;;6.00;4.00;;;;;15.02;68.52;100414.81;2040849;27;2754439;-76
2023/03/13 04:11:03;;;;;;;;;8.33;7.67;;;;;15.02;68.53;100412.16;2040916;28;3455489;-76
2023/03/13 04:12:14;;;;;;;;;10.00;6.00;;;;;15.02;68.51;100413.94;2028236;28;3476700;-76
2023/03/13 04:13:25;;;;;;;;;10.00;6.00;;;;;15.02;68.76;100417.44;2040510;28;3472131;-75
2023/03/13 04:14:36;;;;;;;;;9.00;6.67;;;;;15.02;68.37;100412.16;2040940;27;2736791;-75
2023/03/13 04:15:48;;;;;;;;;6.50;4.25;;;;;15.01;68.40;100413.13;2050841;27;2746178;-76
2023/03/13 04:16:58;;;;;;;;;4.67;4.00;;;;;15.01;68.44;100405.19;2022677;28;2749285;-76
2023/03/13 04:18:09;;;;;;;;;6.00;4.00;;;;;15.01;68.23;100413.13;2051583;28;2746103;-76
2023/03/13 04:19:20;;;;;;;;;4.00;4.00;;;;;15.01;68.23;100418.41;2024174;27;3467969;-76
2023/03/13 04:20:31;;;;;;;;;5.67;4.33;;;;;15.01;68.56;100418.41;2051385;27;2742985;-75
2023/03/13 04:21:42;;;;;;;;;8.00;4.33;;;;;15.01;68.06;100410.47;2004679;28;2748200;-75
2023/03/13 04:22:52;;;;;;;;;6.33;4.00;;;;;15.02;68.35;100406.88;2041310;28;3461798;-75
2023/03/13 04:24:05;;;;;;;;;5.50;5.25;;;;;15.01;68.29;100407.81;2043115;28;2750273;-75
2023/03/13 04:25:15;;;;;;;;;4.33;4.33;;;;;15.00;68.34;100406.09;2024415;28;2750285;-76
2023/03/13 04:26:26;;;;;;;;;6.33;3.00;;;;;15.01;68.65;100399.03;2038952;27;2737846;-75
2023/03/13 04:27:37;;;;;;;;;4.67;4.67;;;;;15.01;68.16;100405.19;2051301;27;2744042;-75
2023/03/13 04:28:47;;;;;;;;;3.67;3.67;;;;;15.00;68.18;100395.53;2003225;28;2739879;-75
2023/03/13 04:29:59;;;;;;;;;4.67;4.00;;;;;15.01;68.19;100389.28;2036233;28;2750288;-75
2023/03/13 04:31:11;;;;;;;;;6.00;4.40;;;;;15.00;68.14;100381.44;2050600;28;2746113;-75
2023/03/13 04:32:21;;;;;;;;;7.00;5.00;;;;;14.99;68.35;100379.75;2004328;28;2746110;-75
2023/03/13 04:33:33;;;;;;;;;4.33;4.33;;;;;14.99;68.27;100367.34;2043870;28;2750343;-75
2023/03/13 04:34:45;;;;;;;;;7.40;4.80;;;;;14.99;68.73;100382.38;2051957;27;2739849;-75
2023/03/13 04:35:58;;;;;;;;;5.50;5.50;;;;;14.96;68.33;100381.59;2052272;28;2746555;-75
2023/03/13 04:37:09;;;;;;;;;5.00;5.00;;;;;14.96;68.47;100381.59;2001685;28;2745064;-75
2023/03/13 04:38:20;;;;;;;;;6.33;4.33;;;;;14.97;68.60;100382.44;2043286;28;3456463;-75
2023/03/13 04:39:31;;;;;;;;;5.67;4.00;;;;;14.96;68.82;100394.81;2035803;28;2754458;-75
2023/03/13 04:40:42;;;;;;;;;5.67;4.33;;;;;14.98;68.39;100389.47;2040228;28;2752447;-75
2023/03/13 04:41:55;;;;;;;;;7.00;5.00;;;;;15.00;68.54;100400.81;2042816;28;2735687;-75
2023/03/13 04:43:08;;;;;;;;;6.00;6.00;;;;;15.00;68.64;100395.53;2022457;28;2746621;-75
2023/03/13 04:44:19;;;;;;;;;4.00;4.00;;;;;15.00;68.60;100400.81;2001879;27;3465921;-75
2023/03/13 04:45:31;;;;;;;;;4.00;4.00;;;;;15.00;68.41;100395.53;2051022;28;2748186;-76
2023/03/13 04:46:44;;;;;;;;;6.00;5.83;;;;;14.99;68.45;100393.78;2050527;28;2741928;-75
2023/03/13 04:47:58;;;;;;;;;4.67;4.00;;;;;15.00;68.18;100389.38;2029548;28;2744077;-76
2023/03/13 04:49:11;;;;;;;;;5.67;4.00;;;;;15.01;68.24;100394.59;2028992;27;2736748;-75
2023/03/13 04:50:22;;;;;;;;;6.67;6.67;;;;;14.99;68.41;100395.63;2003091;28;2742984;-76
2023/03/13 04:51:33;;;;;;;;;6.00;5.00;;;;;14.98;68.59;100392.13;2042530;28;2742973;-75
2023/03/13 04:52:43;;;;;;;;;4.00;3.00;;;;;14.99;68.49;100390.31;2011676;28;2753382;-75
2023/03/13 04:53:54;;;;;;;;;4.00;4.00;;;;;14.99;68.08;100388.50;2043373;28;3470501;-75
2023/03/13 04:55:06;;;;;;;;;7.75;7.75;;;;;15.00;68.01;100389.38;2051668;27;2742013;-75
2023/03/13 04:56:24;;;;;;;;;4.00;4.00;;;;;14.99;68.34;100404.38;2024671;28;3467973;-76
2023/03/13 04:57:35;;;;;;;;;6.00;5.00;;;;;14.99;68.40;100409.69;2026704;28;2746101;-75
2023/03/13 04:58:45;;;;;;;;;3.67;3.67;;;;;14.98;68.37;100405.34;2041957;27;2752808;-76
2023/03/13 04:59:56;;;;;;;;;5.00;4.67;;;;;14.99;68.39;100412.31;2043322;28;2747175;-75
2023/03/13 05:01:07;;;;;;;;;4.00;4.00;;;;;14.99;68.03;100403.56;1999162;28;2753491;-76
2023/03/13 05:02:18;;;;;;;;;7.67;5.00;;;;;14.99;68.46;100398.25;2042923;28;3456514;-75
2023/03/13 05:03:29;;;;;;;;;4.00;3.33;;;;;14.98;68.49;100408.00;2039959;28;2740933;-75
2023/03/13 05:04:40;;;;;;;;;6.67;5.00;;;;;14.97;68.08;100411.56;2038838;27;2746525;-75
2023/03/13 05:05:51;;;;;;;;;8.50;6.00;;;;;14.98;68.30;100401.84;2050514;28;2740906;-76
2023/03/13 05:07:02;;;;;;;;;6.00;5.00;;;;;14.98;68.37;100408.00;2025406;27;2748201;-75
2023/03/13 05:08:13;;;;;;;;;6.00;6.00;;;;;14.98;68.22;100413.28;2043519;27;3458616;-75
2023/03/13 05:09:24;;;;;;;;;8.00;6.00;;;;;14.98;68.13;100407.13;2036799;28;2746154;-76
2023/03/13 05:10:35;;;;;;;;;5.33;5.33;;;;;14.99;68.51;100408.84;2027393;28;2743387;-75
2023/03/13 05:11:46;;;;;;;;;6.25;6.00;;;;;14.98;68.53;100399.19;2044418;28;2746130;-75
2023/03/13 05:12:57;;;;;;;;;5.67;5.33;;;;;14.98;68.40;100402.69;2018116;28;2748310;-75
2023/03/13 05:14:10;;;;;;;;;4.33;4.33;;;;;14.97;68.22;100398.34;2040978;28;3465885;-75
2023/03/13 05:15:20;;;;;;;;;7.67;4.33;;;;;14.97;68.22;100398.34;2026105;28;3467951;-75
2023/03/13 05:16:31;;;;;;;;;6.00;4.67;;;;;14.97;68.08;100395.69;2042663;27;2750292;-75
2023/03/13 05:17:42;;;;;;;;;7.00;5.00;;;;;14.96;68.19;100394.81;2040510;27;2748196;-75
2023/03/13 05:18:53;;;;;;;;;7.33;5.33;;;;;14.97;67.86;100390.38;2039646;27;2748279;-75
2023/03/13 05:20:06;;;;;;;;;9.00;5.67;;;;;14.96;68.14;100400.13;2039744;27;2743070;-75
2023/03/13 05:21:19;;;;;;;;;6.50;6.50;;;;;14.99;68.28;100392.97;2050205;27;2740379;-76
2023/03/13 05:22:33;;;;;;;;;5.67;3.83;;;;;14.98;68.40;100396.53;2027191;28;2750745;-75
2023/03/13 05:23:43;;;;;;;;;5.33;5.00;;;;;14.96;68.15;100389.53;1995606;28;2750273;-75
2023/03/13 05:24:54;;;;;;;;;6.67;4.67;;;;;14.96;68.20;100400.13;2051784;27;2743457;-75
2023/03/13 05:26:04;;;;;;;;;9.67;3.33;;;;;14.97;68.14;100400.97;2000994;27;3489814;-75
2023/03/13 05:27:15;;;;;;;;;5.00;5.00;;;;;14.97;68.14;100398.34;2051489;27;2737773;-75
2023/03/13 05:28:26;;;;;;;;;4.33;4.00;;;;;14.97;68.16;100393.03;2003443;28;2743057;-75
2023/03/13 05:29:38;;;;;;;;;7.33;5.00;;;;;14.98;68.23;100394.75;2050388;28;2743001;-76
2023/03/13 05:30:48;;;;;;;;;6.67;5.00;;;;;14.98;68.11;100397.41;2020394;28;2743572;-75
2023/03/13 05:31:59;;;;;;;;;8.00;5.00;;;;;14.98;67.88;100397.41;2033471;28;2744101;-76
2023/03/13 05:33:10;;;;;;;;;6.00;5.67;;;;;14.98;68.10;100393.91;2036247;28;2746131;-75
2023/03/13 05:34:21;;;;;;;;;6.00;5.00;;;;;14.99;67.95;100392.97;2057763;27;2743489;-75
2023/03/13 05:35:34;;;;;;;;;4.83;4.00;;;;;14.99;68.16;100399.09;2029781;28;2735682;-75